createdAt,value
2018-07-29T00:01:30.046Z,8.03
2018-07-29T00:03:58.780Z,7.20
2018-07-29T00:06:27.546Z,6.73
2018-07-29T00:08:56.345Z,6.37
2018-07-29T00:11:25.069Z,5.77
2018-07-29T00:13:53.825Z,6.93
2018-07-29T00:16:22.588Z,7.33
2018-07-29T00:18:51.316Z,6.20
2018-07-29T00:21:20.046Z,6.37
2018-07-29T00:23:48.797Z,8.10
2018-07-29T00:26:17.576Z,8.90
2018-07-29T00:28:46.313Z,8.73
2018-07-29T00:31:15.070Z,7.50
2018-07-29T00:33:43.783Z,7.03
2018-07-29T00:36:12.497Z,9.07
2018-07-29T00:38:41.238Z,5.43
2018-07-29T00:41:10.113Z,4.97
2018-07-29T00:43:38.897Z,6.87
2018-07-29T00:46:07.657Z,6.03
2018-07-29T00:48:36.927Z,7.83
2018-07-29T00:51:05.699Z,5.77
2018-07-29T00:53:34.041Z,5.50
2018-07-29T00:56:02.788Z,6.47
2018-07-29T00:58:31.124Z,5.07
2018-07-29T01:00:59.818Z,5.40
2018-07-29T01:03:28.599Z,4.73
2018-07-29T01:05:57.306Z,5.83
2018-07-29T01:08:26.037Z,4.30
2018-07-29T01:10:54.786Z,4.60
2018-07-29T01:13:23.495Z,6.47
2018-07-29T01:15:52.227Z,5.10
2018-07-29T01:18:20.949Z,6.63
2018-07-29T01:20:49.359Z,4.57
2018-07-29T01:23:18.076Z,6.77
2018-07-29T01:25:46.888Z,6.03
2018-07-29T01:28:16.761Z,9.43
2018-07-29T01:30:45.462Z,5.90
2018-07-29T01:33:14.181Z,7.00
2018-07-29T01:35:42.893Z,5.40
2018-07-29T01:38:12.069Z,8.47
2018-07-29T01:40:49.624Z,5.90
2018-07-29T01:43:18.393Z,5.23
2018-07-29T01:45:47.107Z,4.93
2018-07-29T01:48:15.814Z,7.10
2018-07-29T01:50:44.546Z,7.03
2018-07-29T01:53:14.183Z,6.23
2018-07-29T01:55:49.592Z,6.47
2018-07-29T01:58:22.782Z,9.13
2018-07-29T02:00:53.396Z,6.97
2018-07-29T02:03:22.613Z,10.10
2018-07-29T02:05:51.488Z,10.37
2018-07-29T02:08:20.943Z,7.70
2018-07-29T02:10:49.851Z,10.23
2018-07-29T02:13:18.894Z,9.23
2018-07-29T02:15:48.136Z,9.07
2018-07-29T02:18:17.225Z,9.87
2018-07-29T02:20:45.970Z,11.50
2018-07-29T02:23:14.281Z,7.80
2018-07-29T02:25:43.511Z,10.00
2018-07-29T02:28:12.314Z,7.07
2018-07-29T02:30:41.185Z,10.43
2018-07-29T02:33:10.253Z,12.53
2018-07-29T02:35:39.057Z,10.37
2018-07-29T02:38:08.070Z,10.63
2018-07-29T02:40:37.053Z,10.47
2018-07-29T02:43:06.121Z,13.77
2018-07-29T02:45:35.525Z,17.90
2018-07-29T02:48:04.597Z,12.63
2018-07-29T02:50:33.437Z,12.03
2018-07-29T02:53:02.388Z,12.20
2018-07-29T02:55:31.596Z,13.07
2018-07-29T02:58:00.682Z,13.83
2018-07-29T03:00:29.452Z,14.43
2018-07-29T03:02:58.293Z,14.00
2018-07-29T03:05:27.609Z,15.97
2018-07-29T03:07:56.794Z,13.80
2018-07-29T03:10:25.497Z,16.77
2018-07-29T03:12:54.737Z,16.80
2018-07-29T03:15:23.959Z,17.70
2018-07-29T03:17:53.399Z,16.40
2018-07-29T03:20:22.697Z,16.87
2018-07-29T03:22:51.763Z,16.33
2018-07-29T03:25:20.902Z,15.97
2018-07-29T03:27:49.721Z,16.40
2018-07-29T03:30:19.075Z,16.43
2018-07-29T03:32:48.077Z,15.13
2018-07-29T03:35:16.807Z,16.33
2018-07-29T03:37:45.561Z,14.07
2018-07-29T03:40:14.635Z,18.73
2018-07-29T03:42:43.878Z,13.57
2018-07-29T03:45:13.414Z,13.43
2018-07-29T03:47:42.369Z,12.90
2018-07-29T03:50:11.605Z,13.00
2018-07-29T03:52:40.493Z,13.90
2018-07-29T03:55:09.487Z,12.77
2018-07-29T03:57:38.663Z,13.28
2018-07-29T04:00:08.016Z,12.83
2018-07-29T04:02:36.960Z,12.67
2018-07-29T04:05:06.217Z,12.93
2018-07-29T04:07:35.008Z,12.30
2018-07-29T04:10:04.337Z,14.80
2018-07-29T04:12:33.067Z,14.43
2018-07-29T04:15:01.795Z,11.37
2018-07-29T04:17:30.908Z,12.25
2018-07-29T04:19:59.885Z,11.60
2018-07-29T04:22:28.569Z,11.03
2018-07-29T04:24:57.101Z,11.83
2018-07-29T04:27:25.783Z,12.77
2018-07-29T04:29:54.965Z,10.87
2018-07-29T04:32:23.875Z,11.90
2018-07-29T04:34:52.598Z,10.27
2018-07-29T04:37:20.946Z,9.80
2018-07-29T04:39:50.190Z,10.00
2018-07-29T04:42:18.938Z,9.80
2018-07-29T04:44:47.703Z,10.90
2018-07-29T04:47:16.488Z,10.23
2018-07-29T04:49:45.199Z,9.93
2018-07-29T04:52:14.023Z,10.93
2018-07-29T04:54:42.700Z,10.40
2018-07-29T04:57:11.539Z,9.33
2018-07-29T04:59:40.357Z,10.13
2018-07-29T05:02:09.190Z,8.93
2018-07-29T05:04:37.559Z,10.23
2018-07-29T05:07:06.297Z,10.00
2018-07-29T05:09:35.027Z,9.87
2018-07-29T05:12:03.483Z,11.57
2018-07-29T05:14:32.705Z,10.03
2018-07-29T05:17:01.579Z,11.23
2018-07-29T05:19:30.451Z,10.43
2018-07-29T05:21:59.369Z,10.37
2018-07-29T05:24:28.133Z,10.53
2018-07-29T05:26:56.918Z,10.07
2018-07-29T05:29:25.748Z,11.07
2018-07-29T05:31:54.257Z,11.03
2018-07-29T05:34:22.778Z,11.27
2018-07-29T05:36:51.597Z,12.70
2018-07-29T05:39:20.582Z,11.40
2018-07-29T05:41:49.397Z,12.37
2018-07-29T05:44:18.091Z,10.80
2018-07-29T05:46:46.819Z,9.97
2018-07-29T05:49:15.537Z,9.87
2018-07-29T05:51:44.201Z,10.03
2018-07-29T05:54:12.978Z,7.63
2018-07-29T05:56:41.328Z,7.67
2018-07-29T05:59:10.055Z,7.30
2018-07-29T06:01:38.776Z,8.78
2018-07-29T06:04:07.941Z,8.57
2018-07-29T06:06:36.633Z,7.70
2018-07-29T06:09:08.029Z,5.78
2018-07-29T06:11:36.772Z,7.20
2018-07-29T06:14:05.527Z,10.70
2018-07-29T06:16:34.248Z,7.08
2018-07-29T06:19:02.960Z,7.25
2018-07-29T06:21:31.666Z,6.12
2018-07-29T06:24:00.390Z,6.33
2018-07-29T06:26:29.055Z,6.70
2018-07-29T06:28:57.743Z,6.10
2018-07-29T06:31:26.467Z,6.15
2018-07-29T06:33:55.141Z,4.97
2018-07-29T06:36:23.842Z,7.33
2018-07-29T06:38:52.530Z,5.28
2018-07-29T06:41:21.744Z,5.20
2018-07-29T06:43:50.373Z,7.20
2018-07-29T06:46:19.059Z,6.95
2018-07-29T06:48:47.757Z,5.55
2018-07-29T06:51:16.666Z,7.47
2018-07-29T06:53:45.654Z,6.78
2018-07-29T06:56:14.363Z,6.70
2018-07-29T06:58:43.103Z,5.53
2018-07-29T07:01:11.818Z,6.80
2018-07-29T07:03:40.588Z,6.55
2018-07-29T07:06:09.289Z,6.75
2018-07-29T07:08:38.033Z,8.60
2018-07-29T07:11:06.742Z,8.30
2018-07-29T07:13:35.565Z,4.70
2018-07-29T07:16:04.381Z,6.28
2018-07-29T07:18:33.045Z,8.83
2018-07-29T07:21:04.677Z,6.72
2018-07-29T07:23:33.345Z,6.65
2018-07-29T07:26:02.034Z,7.70
2018-07-29T07:28:30.707Z,10.48
2018-07-29T07:30:59.422Z,7.37
2018-07-29T07:33:28.106Z,8.10
2018-07-29T07:35:56.804Z,8.20
2018-07-29T07:38:25.154Z,7.58
2018-07-29T07:40:53.915Z,6.67
2018-07-29T07:43:22.573Z,6.20
2018-07-29T07:45:51.301Z,7.08
2018-07-29T07:48:19.985Z,7.40
2018-07-29T07:50:48.670Z,5.80
2018-07-29T07:53:17.416Z,7.30
2018-07-29T07:55:46.161Z,10.20
2018-07-29T07:58:14.842Z,6.35
2018-07-29T08:00:43.505Z,9.70
2018-07-29T08:03:12.230Z,7.15
2018-07-29T08:05:40.906Z,7.05
2018-07-29T08:08:09.603Z,6.92
2018-07-29T08:10:38.351Z,5.83
2018-07-29T08:13:07.213Z,8.88
2018-07-29T08:15:36.318Z,5.33
2018-07-29T08:18:05.113Z,7.12
2018-07-29T08:20:33.947Z,4.60
2018-07-29T08:23:02.669Z,4.92
2018-07-29T08:25:30.998Z,4.42
2018-07-29T08:27:59.820Z,4.70
2018-07-29T08:30:28.565Z,6.92
2018-07-29T08:32:57.282Z,6.08
2018-07-29T08:35:26.018Z,5.53
2018-07-29T08:37:54.715Z,6.92
2018-07-29T08:40:23.664Z,6.78
2018-07-29T08:42:52.407Z,6.35
2018-07-29T08:45:21.308Z,5.70
2018-07-29T08:47:50.010Z,4.22
2018-07-29T08:50:18.726Z,3.80
2018-07-29T08:52:47.441Z,7.67
2018-07-29T08:55:16.153Z,6.17
2018-07-29T08:57:44.926Z,5.00
2018-07-29T09:00:13.679Z,5.37
2018-07-29T09:02:42.426Z,5.47
2018-07-29T09:05:11.123Z,4.25
2018-07-29T09:07:39.822Z,4.17
2018-07-29T09:10:08.800Z,3.75
2018-07-29T09:12:37.680Z,4.75
2018-07-29T09:15:06.394Z,3.55
2018-07-29T09:17:35.090Z,4.08
2018-07-29T09:20:03.869Z,4.10
2018-07-29T09:22:32.554Z,5.58
2018-07-29T09:25:01.265Z,5.25
2018-07-29T09:27:29.936Z,6.75
2018-07-29T09:29:58.688Z,3.75
2018-07-29T09:32:27.424Z,3.92
2018-07-29T09:34:56.143Z,3.58
2018-07-29T09:37:24.856Z,5.70
2018-07-29T09:39:53.678Z,4.55
2018-07-29T09:42:22.835Z,4.20
2018-07-29T09:44:51.519Z,5.17
2018-07-29T09:47:20.308Z,4.25
2018-07-29T09:49:49.044Z,4.80
2018-07-29T09:52:17.777Z,3.60
2018-07-29T09:54:46.527Z,3.40
2018-07-29T09:57:15.293Z,3.85
2018-07-29T09:59:44.012Z,5.22
2018-07-29T10:02:14.423Z,3.95
2018-07-29T10:04:43.096Z,4.47
2018-07-29T10:07:11.775Z,3.92
2018-07-29T10:09:41.319Z,6.70
2018-07-29T10:12:10.097Z,4.10
2018-07-29T10:14:39.938Z,4.67
2018-07-29T10:17:09.510Z,4.15
2018-07-29T10:19:41.387Z,4.47
2018-07-29T10:22:10.326Z,4.00
2018-07-29T10:24:38.677Z,4.15
2018-07-29T10:27:07.347Z,3.80
2018-07-29T10:29:36.084Z,4.42
2018-07-29T10:32:04.848Z,3.20
2018-07-29T10:34:33.196Z,3.87
2018-07-29T10:37:01.941Z,4.80
2018-07-29T10:39:30.678Z,3.05
2018-07-29T10:41:59.385Z,3.10
2018-07-29T10:44:28.093Z,3.08
2018-07-29T10:46:56.877Z,3.20
2018-07-29T10:49:25.532Z,3.25
2018-07-29T10:51:54.370Z,3.15
2018-07-29T10:54:23.110Z,4.35
2018-07-29T10:56:51.874Z,4.53
2018-07-29T10:59:20.585Z,4.92
2018-07-29T11:01:49.296Z,3.47
2018-07-29T11:04:18.010Z,3.45
2018-07-29T11:06:46.792Z,3.47
2018-07-29T11:09:15.671Z,3.75
2018-07-29T11:11:44.319Z,3.35
2018-07-29T11:14:13.030Z,3.40
2018-07-29T11:16:41.687Z,3.72
2018-07-29T11:19:10.368Z,3.40
2018-07-29T11:21:39.122Z,3.08
2018-07-29T11:24:07.853Z,2.92
2018-07-29T11:26:36.561Z,3.12
2018-07-29T11:29:05.243Z,2.87
2018-07-29T11:31:33.954Z,2.98
2018-07-29T11:34:02.664Z,2.47
2018-07-29T11:36:31.360Z,2.70
2018-07-29T11:39:00.050Z,2.58
2018-07-29T11:41:28.686Z,3.60
2018-07-29T11:43:57.513Z,2.60
2018-07-29T11:46:26.231Z,2.87
2018-07-29T11:48:54.930Z,3.35
2018-07-29T11:51:23.610Z,2.52
2018-07-29T11:53:52.434Z,2.87
2018-07-29T11:56:21.560Z,2.60
2018-07-29T11:59:04.531Z,4.12
2018-07-29T12:01:33.245Z,3.37
2018-07-29T12:04:02.028Z,2.37
2018-07-29T12:06:31.065Z,3.05
2018-07-29T12:08:59.756Z,2.33
2018-07-29T12:11:28.457Z,2.12
2018-07-29T12:13:57.174Z,1.82
2018-07-29T12:16:25.913Z,1.98
2018-07-29T12:18:54.615Z,4.20
2018-07-29T12:21:23.443Z,3.47
2018-07-29T12:23:52.172Z,2.10
2018-07-29T12:26:20.834Z,2.05
2018-07-29T12:28:49.614Z,2.25
2018-07-29T12:31:18.330Z,2.83
2018-07-29T12:33:47.208Z,2.98
2018-07-29T12:36:15.943Z,2.33
2018-07-29T12:38:44.665Z,2.75
2018-07-29T12:41:12.997Z,3.12
2018-07-29T12:43:41.712Z,4.17
2018-07-29T12:46:10.415Z,3.37
2018-07-29T12:48:39.099Z,3.10
2018-07-29T12:51:07.946Z,2.72
2018-07-29T12:53:36.729Z,2.72
2018-07-29T12:56:05.692Z,3.12
2018-07-29T12:58:34.378Z,3.35
2018-07-29T13:01:03.075Z,3.52
2018-07-29T13:03:31.827Z,3.08
2018-07-29T13:06:00.591Z,2.80
2018-07-29T13:08:29.337Z,2.52
2018-07-29T13:10:58.348Z,2.62
2018-07-29T13:13:27.025Z,2.25
2018-07-29T13:15:55.369Z,2.90
2018-07-29T13:18:24.082Z,5.47
2018-07-29T13:20:52.839Z,3.22
2018-07-29T13:23:21.653Z,3.12
2018-07-29T13:25:50.382Z,8.08
2018-07-29T13:28:19.207Z,3.50
2018-07-29T13:30:47.907Z,3.12
2018-07-29T13:33:16.720Z,4.87
2018-07-29T13:35:45.450Z,2.70
2018-07-29T13:38:14.151Z,3.90
2018-07-29T13:40:42.961Z,4.15
2018-07-29T13:43:11.909Z,2.92
2018-07-29T13:45:40.631Z,4.83
2018-07-29T13:48:09.368Z,3.75
2018-07-29T13:50:38.078Z,2.58
2018-07-29T13:53:07.117Z,3.65
2018-07-29T13:55:35.837Z,3.37
2018-07-29T13:58:04.661Z,2.33
2018-07-29T14:00:33.581Z,2.60
2018-07-29T14:03:02.267Z,4.50
2018-07-29T14:05:31.039Z,2.70
2018-07-29T14:07:59.801Z,4.12
2018-07-29T14:10:28.617Z,3.42
2018-07-29T14:12:57.315Z,2.83
2018-07-29T14:15:26.193Z,3.45
2018-07-29T14:17:54.934Z,2.85
2018-07-29T14:20:23.690Z,4.62
2018-07-29T14:22:52.461Z,3.27
2018-07-29T14:25:21.189Z,3.20
2018-07-29T14:27:50.025Z,2.55
2018-07-29T14:30:18.803Z,4.45
2018-07-29T14:32:47.589Z,3.45
2018-07-29T14:35:16.389Z,3.90
2018-07-29T14:37:45.131Z,3.40
2018-07-29T14:40:13.816Z,2.37
2018-07-29T14:42:42.625Z,3.45
2018-07-29T14:45:11.360Z,3.50
2018-07-29T14:47:39.714Z,4.33
2018-07-29T14:50:08.489Z,2.37
2018-07-29T14:52:37.234Z,4.08
2018-07-29T14:55:06.311Z,4.60
2018-07-29T14:57:35.009Z,5.83
2018-07-29T15:00:03.453Z,3.15
2018-07-29T15:02:32.109Z,3.27
2018-07-29T15:05:00.831Z,2.85
2018-07-29T15:07:29.532Z,3.30
2018-07-29T15:09:58.244Z,3.33
2018-07-29T15:12:27.025Z,2.42
2018-07-29T15:14:55.731Z,2.85
2018-07-29T15:17:24.424Z,3.20
2018-07-29T15:19:53.151Z,3.33
2018-07-29T15:22:21.900Z,3.47
2018-07-29T15:24:50.619Z,3.80
2018-07-29T15:27:19.340Z,3.17
2018-07-29T15:29:48.044Z,2.80
2018-07-29T15:32:16.841Z,2.77
2018-07-29T15:34:45.549Z,3.47
2018-07-29T15:37:14.288Z,2.30
2018-07-29T15:39:43.070Z,2.77
2018-07-29T15:42:11.856Z,2.65
2018-07-29T15:44:40.577Z,2.90
2018-07-29T15:47:09.766Z,2.52
2018-07-29T15:49:38.502Z,2.20
2018-07-29T15:52:07.222Z,2.35
2018-07-29T15:54:35.939Z,3.22
2018-07-29T15:57:04.875Z,2.50
2018-07-29T15:59:33.742Z,3.47
2018-07-29T16:02:02.465Z,3.62
2018-07-29T16:04:30.786Z,3.05
2018-07-29T16:06:59.550Z,2.95
2018-07-29T16:09:28.298Z,3.58
2018-07-29T16:11:57.030Z,3.67
2018-07-29T16:14:25.946Z,4.05
2018-07-29T16:16:54.692Z,3.83
2018-07-29T16:19:23.373Z,2.98
2018-07-29T16:21:52.113Z,2.27
2018-07-29T16:24:20.811Z,2.62
2018-07-29T16:26:49.591Z,2.75
2018-07-29T16:29:18.323Z,2.80
2018-07-29T16:31:47.083Z,3.75
2018-07-29T16:34:15.798Z,3.08
2018-07-29T16:36:44.530Z,3.52
2018-07-29T16:39:14.171Z,3.60
2018-07-29T16:41:42.908Z,2.37
2018-07-29T16:44:12.547Z,2.85
2018-07-29T16:46:41.514Z,3.05
2018-07-29T16:49:10.278Z,5.97
2018-07-29T16:51:39.025Z,2.92
2018-07-29T16:54:07.893Z,2.70
2018-07-29T16:56:36.650Z,2.20
2018-07-29T16:59:05.450Z,3.00
2018-07-29T17:01:34.200Z,2.10
2018-07-29T17:04:02.913Z,2.55
2018-07-29T17:06:31.598Z,8.35
2018-07-29T17:09:00.280Z,3.00
2018-07-29T17:11:28.996Z,3.00
2018-07-29T17:13:57.718Z,2.62
2018-07-29T17:16:26.461Z,3.50
2018-07-29T17:18:55.236Z,2.47
2018-07-29T17:21:23.979Z,3.42
2018-07-29T17:23:52.734Z,2.22
2018-07-29T17:26:21.492Z,2.55
2018-07-29T17:28:50.446Z,2.87
2018-07-29T17:31:19.213Z,3.42
2018-07-29T17:33:47.937Z,2.42
2018-07-29T17:36:16.683Z,2.58
2018-07-29T17:38:45.386Z,4.55
2018-07-29T17:41:14.183Z,2.65
2018-07-29T17:43:42.590Z,2.37
2018-07-29T17:46:11.270Z,2.40
2018-07-29T17:48:39.989Z,2.90
2018-07-29T17:51:08.735Z,2.40
2018-07-29T17:53:37.459Z,2.58
2018-07-29T17:56:06.217Z,2.30
2018-07-29T17:58:34.935Z,2.42
2018-07-29T18:01:03.973Z,2.52
2018-07-29T18:03:32.312Z,2.25
2018-07-29T18:06:01.116Z,2.50
2018-07-29T18:08:29.902Z,2.52
2018-07-29T18:10:58.645Z,2.52
2018-07-29T18:13:27.521Z,2.50
2018-07-29T18:15:56.240Z,2.87
2018-07-29T18:18:24.978Z,2.25
2018-07-29T18:20:53.698Z,2.00
2018-07-29T18:23:22.522Z,3.52
2018-07-29T18:25:50.773Z,2.55
2018-07-29T18:28:19.492Z,2.17
2018-07-29T18:30:48.221Z,2.12
2018-07-29T18:33:16.940Z,1.95
2018-07-29T18:35:45.688Z,2.22
2018-07-29T18:38:14.338Z,2.35
2018-07-29T18:40:43.252Z,2.17
2018-07-29T18:43:12.082Z,3.08
2018-07-29T18:45:40.775Z,2.25
2018-07-29T18:48:09.471Z,2.72
2018-07-29T18:50:38.158Z,2.20
2018-07-29T18:53:06.928Z,2.75
2018-07-29T18:55:35.631Z,2.87
2018-07-29T18:58:04.311Z,2.60
2018-07-29T19:00:33.040Z,2.72
2018-07-29T19:03:01.790Z,3.00
2018-07-29T19:05:30.468Z,2.52
2018-07-29T19:07:59.161Z,3.67
2018-07-29T19:10:27.555Z,2.60
2018-07-29T19:12:56.582Z,2.62
2018-07-29T19:15:27.041Z,2.60
2018-07-29T19:17:55.891Z,2.40
2018-07-29T19:20:24.710Z,2.35
2018-07-29T19:22:53.043Z,2.33
2018-07-29T19:25:21.725Z,2.62
2018-07-29T19:27:50.452Z,2.58
2018-07-29T19:30:18.773Z,2.33
2018-07-29T19:32:47.467Z,3.85
2018-07-29T19:35:16.200Z,2.60
2018-07-29T19:37:45.063Z,2.02
2018-07-29T19:40:13.816Z,7.03
2018-07-29T19:42:42.523Z,2.12
2018-07-29T19:45:11.226Z,2.60
2018-07-29T19:47:39.944Z,2.60
2018-07-29T19:50:08.750Z,3.17
2018-07-29T19:52:37.552Z,3.85
2018-07-29T19:55:06.293Z,3.08
2018-07-29T19:57:34.995Z,2.72
2018-07-29T20:00:03.742Z,2.60
2018-07-29T20:02:32.397Z,3.55
2018-07-29T20:05:01.118Z,3.12
2018-07-29T20:07:29.980Z,2.92
2018-07-29T20:09:58.993Z,2.60
2018-07-29T20:12:27.715Z,3.15
2018-07-29T20:14:56.418Z,2.90
2018-07-29T20:17:25.111Z,2.60
2018-07-29T20:19:53.443Z,2.62
2018-07-29T20:22:22.153Z,2.72
2018-07-29T20:24:50.833Z,2.60
2018-07-29T20:27:19.644Z,2.85
2018-07-29T20:29:48.473Z,2.98
2018-07-29T20:32:17.152Z,2.92
2018-07-29T20:34:45.858Z,3.10
2018-07-29T20:37:14.581Z,3.00
2018-07-29T20:39:43.346Z,3.62
2018-07-29T20:42:12.081Z,2.60
2018-07-29T20:44:40.795Z,2.72
2018-07-29T20:47:09.546Z,2.77
2018-07-29T20:49:38.314Z,2.40
2018-07-29T20:52:07.114Z,2.70
2018-07-29T20:54:35.806Z,3.10
2018-07-29T20:57:04.529Z,2.60
2018-07-29T20:59:33.237Z,2.80
2018-07-29T21:02:02.039Z,2.83
2018-07-29T21:04:31.227Z,2.67
2018-07-29T21:06:59.979Z,2.85
2018-07-29T21:09:28.893Z,2.62
2018-07-29T21:11:57.788Z,2.72
2018-07-29T21:14:26.323Z,2.62
2018-07-29T21:16:55.052Z,2.52
2018-07-29T21:19:23.755Z,3.87
2018-07-29T21:21:52.505Z,2.50
2018-07-29T21:24:21.179Z,2.70
2018-07-29T21:26:49.473Z,2.77
2018-07-29T21:29:18.143Z,2.50
2018-07-29T21:31:46.843Z,2.58
2018-07-29T21:34:15.553Z,2.33
2018-07-29T21:36:44.225Z,2.77
2018-07-29T21:39:12.598Z,2.40
2018-07-29T21:41:41.340Z,3.25
2018-07-29T21:44:10.089Z,2.72
2018-07-29T21:46:38.431Z,2.90
2018-07-29T21:49:07.165Z,3.10
2018-07-29T21:51:35.840Z,2.85
2018-07-29T21:54:04.196Z,2.60
2018-07-29T21:56:32.894Z,2.90
2018-07-29T21:59:01.549Z,3.33
2018-07-29T22:01:30.394Z,4.03
2018-07-29T22:03:59.179Z,2.58
2018-07-29T22:06:27.884Z,3.02
2018-07-29T22:08:56.622Z,3.52
2018-07-29T22:11:25.351Z,2.75
2018-07-29T22:13:54.074Z,2.80
2018-07-29T22:16:22.789Z,2.77
2018-07-29T22:18:51.536Z,2.90
2018-07-29T22:21:20.256Z,3.30
2018-07-29T22:23:48.973Z,3.10
2018-07-29T22:26:17.970Z,3.25
2018-07-29T22:28:51.666Z,2.98
2018-07-29T22:31:25.640Z,3.17
2018-07-29T22:33:54.000Z,2.77
2018-07-29T22:36:22.658Z,2.83
2018-07-29T22:38:51.327Z,3.67
2018-07-29T22:41:20.057Z,2.98
2018-07-29T22:43:48.376Z,3.00
2018-07-29T22:46:17.035Z,3.10
2018-07-29T22:48:45.738Z,3.02
2018-07-29T22:51:14.860Z,3.40
2018-07-29T22:53:43.598Z,3.08
2018-07-29T22:56:12.322Z,3.20
2018-07-29T22:58:41.030Z,3.17
2018-07-29T23:01:09.932Z,2.92
2018-07-29T23:03:38.650Z,3.17
2018-07-29T23:06:07.344Z,3.33
2018-07-29T23:08:36.032Z,3.60
2018-07-29T23:11:04.856Z,3.47
2018-07-29T23:13:33.558Z,3.60
2018-07-29T23:16:02.255Z,3.30
2018-07-29T23:18:31.009Z,3.10
2018-07-29T23:20:59.693Z,3.62
2018-07-29T23:23:28.424Z,3.62
2018-07-29T23:25:57.111Z,3.33
2018-07-29T23:28:25.815Z,3.10
2018-07-29T23:30:54.571Z,3.50
2018-07-29T23:33:23.305Z,3.62
2018-07-29T23:35:52.185Z,3.67
2018-07-29T23:38:20.908Z,3.20
2018-07-29T23:40:49.604Z,3.30
2018-07-29T23:43:18.321Z,3.75
2018-07-29T23:45:47.061Z,3.75
2018-07-29T23:48:15.769Z,3.42
2018-07-29T23:50:44.747Z,3.75
2018-07-29T23:53:13.433Z,3.60
2018-07-29T23:55:42.175Z,3.87
2018-07-29T23:58:10.926Z,3.60
